Atlantic Companion — SKPE — position and weather

sailwx.info

Track history (hours):
 
Tides and Currents Weather Stations Pressure Air Temp Water Temp Dewpoint Dewpoint Depression Visibility Wind Speed Wind Dir Waves Ship Positions

Atlantic Companion

Last reported at 2015-Apr-21 00:00 UTC. Time now 2015-Apr-21 02:55 UTC.
Position N 46°48' W 033°42'.

Length 292 m; beam 32.3 m; draft 11.6 m.

Type: Cargo ship. MMSI: 265142000.

Wind from 140 at 32 knots

Barometer 1006.9 mb
Air temperature 13.2 ° C
Water temperature 11.0 ° C

Date/timePositionNaut miles runAvg speedWind from/ knotsBaromVisibWave heightAir tempDewpointWater temp
2015-Apr-21 00:00N 46°48' W 033°42'39116.3 140 / 321006.9 13.2 11.0
2015-Apr-20 00:00N 45°00' W 042°42'   020 / 241007.5 8.3 14.3
2015-Apr-16 09:17N 40°21' W 069°16'1316.8
2015-Apr-16 08:29N 40°14' W 069°30'1516.5
2015-Apr-16 07:33N 40°05' W 069°47'1816.7
2015-Apr-16 06:28N 39°55' W 070°06'1616.8
2015-Apr-16 05:30N 39°45' W 070°24'4017.3
2015-Apr-16 03:10N 39°21' W 071°06'1118.1
2015-Apr-16 02:33N 39°15' W 071°18'2718.3
2015-Apr-16 01:04N 38°60' W 071°47'917.8
2015-Apr-16 00:33N 38°54' W 071°56'208 6.3
2015-Apr-14 15:33N 37°58' W 076°12'5216.0
2015-Apr-14 12:20N 38°49' W 076°25'1516.7
2015-Apr-14 11:26N 39°04' W 076°24'910.4
2015-Apr-14 10:34N 39°12' W 076°29'3 3.3
2015-Apr-14 09:33N 39°14' W 076°32'0 0.0
2015-Apr-14 08:23N 39°14' W 076°32'0 0.0
2015-Apr-14 07:33N 39°14' W 076°32'0 0.0
2015-Apr-14 06:33N 39°14' W 076°32'0 0.0
2015-Apr-14 05:09N 39°14' W 076°32'0 0.0
2015-Apr-14 04:32N 39°14' W 076°32'0 0.0
2015-Apr-14 03:32N 39°14' W 076°32'0 0.0
2015-Apr-14 02:32N 39°14' W 076°32'0 0.0
2015-Apr-14 01:30N 39°14' W 076°32'0 0.0
2015-Apr-14 00:32N 39°14' W 076°32'0 0.0
2015-Apr-13 23:32N 39°14' W 076°32'0 0.0
2015-Apr-13 22:32N 39°14' W 076°32'0 0.0
2015-Apr-13 21:32N 39°14' W 076°32'0 0.0
2015-Apr-13 20:32N 39°14' W 076°32'0 0.0
2015-Apr-13 19:32N 39°14' W 076°32'0 0.0
2015-Apr-13 18:32N 39°14' W 076°32'0 0.0
2015-Apr-13 17:32N 39°14' W 076°32'0 0.0
2015-Apr-13 16:32N 39°14' W 076°32'0 0.0
2015-Apr-13 15:32N 39°14' W 076°32'0 0.0
2015-Apr-13 14:32N 39°14' W 076°32'0 0.0
2015-Apr-13 13:32N 39°14' W 076°32'0 0.0
2015-Apr-13 12:32N 39°14' W 076°32'0 0.0
2015-Apr-13 11:32N 39°14' W 076°32'0 0.0
2015-Apr-13 10:32N 39°14' W 076°32'0 0.0
2015-Apr-13 09:32N 39°14' W 076°32'0 0.0
2015-Apr-13 08:32N 39°14' W 076°32'0 0.0
2015-Apr-13 07:32N 39°14' W 076°32'0 0.0
2015-Apr-13 06:32N 39°14' W 076°32'0 0.0
2015-Apr-13 05:33N 39°14' W 076°32'2 2.0
2015-Apr-13 04:33N 39°12' W 076°31'1010.2
2015-Apr-13 03:33N 39°10' W 076°18'1110.0
2015-Apr-13 02:30N 39°19' W 076°13'1311.5
2015-Apr-13 01:21N 39°27' W 075°59'91 8.4
2015-Apr-12 14:33N 39°22' W 074°02'1716.6
2015-Apr-12 13:33N 39°37' W 073°55'1616.6
2015-Apr-12 12:34N 39°54' W 073°50'2613.1
2015-Apr-12 10:32N 40°20' W 073°49'9 8.7
2015-Apr-12 09:33N 40°28' W 073°52'1212.4
2015-Apr-12 08:34N 40°37' W 074°03'5 4.7
2015-Apr-12 07:29N 40°40' W 074°09'0 0.0
2015-Apr-12 06:32N 40°40' W 074°09'0 0.0
2015-Apr-12 05:32N 40°40' W 074°09'0 0.0
2015-Apr-12 04:32N 40°40' W 074°09'0 0.0
2015-Apr-12 03:32N 40°40' W 074°09'0 0.0
2015-Apr-12 02:29N 40°40' W 074°09'0 0.0
2015-Apr-12 01:32N 40°40' W 074°09'0 0.0
2015-Apr-12 00:32N 40°40' W 074°09'0 0.0
2015-Apr-11 23:32N 40°40' W 074°09'0 0.0
2015-Apr-11 22:32N 40°40' W 074°09'0 0.0
2015-Apr-11 21:33N 40°40' W 074°09'0 0.0
2015-Apr-11 20:33N 40°40' W 074°09'0 0.0
2015-Apr-11 19:33N 40°40' W 074°09'0 0.0
2015-Apr-11 18:33N 40°40' W 074°09'0 0.0
2015-Apr-11 17:33N 40°40' W 074°09'0 0.0
2015-Apr-11 16:33N 40°40' W 074°09'0 0.0
2015-Apr-11 15:33N 40°40' W 074°09'0 0.0
2015-Apr-11 14:33N 40°40' W 074°09'0 0.0
2015-Apr-11 13:33N 40°40' W 074°09'0 0.0
2015-Apr-11 12:33N 40°40' W 074°09'0 0.0
2015-Apr-11 11:33N 40°40' W 074°09'0 0.0
2015-Apr-11 10:33N 40°40' W 074°09'1 1.0
2015-Apr-11 09:33N 40°41' W 074°08'1 1.3
2015-Apr-11 08:33N 40°42' W 074°08'0 0.0
2015-Apr-11 07:33N 40°42' W 074°08'0 0.0
2015-Apr-11 06:33N 40°42' W 074°08'0 0.0
2015-Apr-11 05:33N 40°42' W 074°08'0 0.0
2015-Apr-11 04:33N 40°42' W 074°08'0 0.0
2015-Apr-11 03:33N 40°42' W 074°08'0 0.0
2015-Apr-11 02:33N 40°42' W 074°08'0 0.0
2015-Apr-11 01:33N 40°42' W 074°08'0 0.0
2015-Apr-11 00:33N 40°42' W 074°08'  
Track history (hours):
 
Tides and Currents Weather Stations Pressure Air Temp Water Temp Dewpoint Dewpoint Depression Visibility Wind Speed Wind Dir Waves Ship Positions

Atlantic Companion

Last reported at 2015-Apr-21 00:00 UTC. Time now 2015-Apr-21 02:55 UTC.
Position N 46°48' W 033°42'.

Length 292 m; beam 32.3 m; draft 11.6 m.

Type: Cargo ship. MMSI: 265142000.

Wind from 140 at 32 knots

Barometer 1006.9 mb
Air temperature 13.2 ° C
Water temperature 11.0 ° C

Date/timePositionNaut miles runAvg speedWind from/ knotsBaromVisibWave heightAir tempDewpointWater temp
2015-Apr-21 00:00N 46°48' W 033°42'39116.3 140 / 321006.9 13.2 11.0
2015-Apr-20 00:00N 45°00' W 042°42'   020 / 241007.5 8.3 14.3
2015-Apr-16 09:17N 40°21' W 069°16'1316.8
2015-Apr-16 08:29N 40°14' W 069°30'1516.5
2015-Apr-16 07:33N 40°05' W 069°47'1816.7
2015-Apr-16 06:28N 39°55' W 070°06'1616.8
2015-Apr-16 05:30N 39°45' W 070°24'4017.3
2015-Apr-16 03:10N 39°21' W 071°06'1118.1
2015-Apr-16 02:33N 39°15' W 071°18'2718.3
2015-Apr-16 01:04N 38°60' W 071°47'917.8
2015-Apr-16 00:33N 38°54' W 071°56'208 6.3
2015-Apr-14 15:33N 37°58' W 076°12'5216.0
2015-Apr-14 12:20N 38°49' W 076°25'1516.7
2015-Apr-14 11:26N 39°04' W 076°24'910.4
2015-Apr-14 10:34N 39°12' W 076°29'3 3.3
2015-Apr-14 09:33N 39°14' W 076°32'0 0.0
2015-Apr-14 08:23N 39°14' W 076°32'0 0.0
2015-Apr-14 07:33N 39°14' W 076°32'0 0.0
2015-Apr-14 06:33N 39°14' W 076°32'0 0.0
2015-Apr-14 05:09N 39°14' W 076°32'0 0.0
2015-Apr-14 04:32N 39°14' W 076°32'0 0.0
2015-Apr-14 03:32N 39°14' W 076°32'0 0.0
2015-Apr-14 02:32N 39°14' W 076°32'0 0.0
2015-Apr-14 01:30N 39°14' W 076°32'0 0.0
2015-Apr-14 00:32N 39°14' W 076°32'0 0.0
2015-Apr-13 23:32N 39°14' W 076°32'0 0.0
2015-Apr-13 22:32N 39°14' W 076°32'0 0.0
2015-Apr-13 21:32N 39°14' W 076°32'0 0.0
2015-Apr-13 20:32N 39°14' W 076°32'0 0.0
2015-Apr-13 19:32N 39°14' W 076°32'0 0.0
2015-Apr-13 18:32N 39°14' W 076°32'0 0.0
2015-Apr-13 17:32N 39°14' W 076°32'0 0.0
2015-Apr-13 16:32N 39°14' W 076°32'0 0.0
2015-Apr-13 15:32N 39°14' W 076°32'0 0.0
2015-Apr-13 14:32N 39°14' W 076°32'0 0.0
2015-Apr-13 13:32N 39°14' W 076°32'0 0.0
2015-Apr-13 12:32N 39°14' W 076°32'0 0.0
2015-Apr-13 11:32N 39°14' W 076°32'0 0.0
2015-Apr-13 10:32N 39°14' W 076°32'0 0.0
2015-Apr-13 09:32N 39°14' W 076°32'0 0.0
2015-Apr-13 08:32N 39°14' W 076°32'0 0.0
2015-Apr-13 07:32N 39°14' W 076°32'0 0.0
2015-Apr-13 06:32N 39°14' W 076°32'0 0.0
2015-Apr-13 05:33N 39°14' W 076°32'2 2.0
2015-Apr-13 04:33N 39°12' W 076°31'1010.2
2015-Apr-13 03:33N 39°10' W 076°18'1110.0
2015-Apr-13 02:30N 39°19' W 076°13'1311.5
2015-Apr-13 01:21N 39°27' W 075°59'91 8.4
2015-Apr-12 14:33N 39°22' W 074°02'1716.6
2015-Apr-12 13:33N 39°37' W 073°55'1616.6
2015-Apr-12 12:34N 39°54' W 073°50'2613.1
2015-Apr-12 10:32N 40°20' W 073°49'9 8.7
2015-Apr-12 09:33N 40°28' W 073°52'1212.4
2015-Apr-12 08:34N 40°37' W 074°03'5 4.7
2015-Apr-12 07:29N 40°40' W 074°09'0 0.0
2015-Apr-12 06:32N 40°40' W 074°09'0 0.0
2015-Apr-12 05:32N 40°40' W 074°09'0 0.0
2015-Apr-12 04:32N 40°40' W 074°09'0 0.0
2015-Apr-12 03:32N 40°40' W 074°09'0 0.0
2015-Apr-12 02:29N 40°40' W 074°09'0 0.0
2015-Apr-12 01:32N 40°40' W 074°09'0 0.0
2015-Apr-12 00:32N 40°40' W 074°09'0 0.0
2015-Apr-11 23:32N 40°40' W 074°09'0 0.0
2015-Apr-11 22:32N 40°40' W 074°09'0 0.0
2015-Apr-11 21:33N 40°40' W 074°09'0 0.0
2015-Apr-11 20:33N 40°40' W 074°09'0 0.0
2015-Apr-11 19:33N 40°40' W 074°09'0 0.0
2015-Apr-11 18:33N 40°40' W 074°09'0 0.0
2015-Apr-11 17:33N 40°40' W 074°09'0 0.0
2015-Apr-11 16:33N 40°40' W 074°09'0 0.0
2015-Apr-11 15:33N 40°40' W 074°09'0 0.0
2015-Apr-11 14:33N 40°40' W 074°09'0 0.0
2015-Apr-11 13:33N 40°40' W 074°09'0 0.0
2015-Apr-11 12:33N 40°40' W 074°09'0 0.0
2015-Apr-11 11:33N 40°40' W 074°09'0 0.0
2015-Apr-11 10:33N 40°40' W 074°09'1 1.0
2015-Apr-11 09:33N 40°41' W 074°08'1 1.3
2015-Apr-11 08:33N 40°42' W 074°08'0 0.0
2015-Apr-11 07:33N 40°42' W 074°08'0 0.0
2015-Apr-11 06:33N 40°42' W 074°08'0 0.0
2015-Apr-11 05:33N 40°42' W 074°08'0 0.0
2015-Apr-11 04:33N 40°42' W 074°08'0 0.0
2015-Apr-11 03:33N 40°42' W 074°08'0 0.0
2015-Apr-11 02:33N 40°42' W 074°08'0 0.0
2015-Apr-11 01:33N 40°42' W 074°08'0 0.0
2015-Apr-11 00:33N 40°42' W 074°08'  

Dump ship's entire track history